Logan, New Mexico
Current Conditions -  °F | °C
As of 11:22 AM on Thursday 18 Dec 2014 (Local Time) from KTCC Reporting Station
Scattered Clouds Scattered Clouds  
Wind Chill: 38°   Ceiling: Unl
Heat Index: 38°   Visibility: 10mi
Dew Point: 32°   Wind: 3mph
Humidity: 79%   Direction: 110°ESE
Pressure: 30.09"   Gusts: NA
Location:  35.37°N, 103.41°W
Report Text: KTCC 181822Z AUTO 11003KT 10SM SCT007 03/00 A3009 RMK AO2 T00330000
Loading
Personal Weather Stations






























Interactive Weather Map New forecast layout! Learn more

10-Day Weather Forecast

Advertisements
Track Severe Weather on mobile